Amarillo, TX (79102)

5:01 PM CDT on August 29, 2016 (GMT -0500)
Plemons-Eakle | | Change Station
Active Advisory: Areal Flood Advisory

Elev 3678 ft 35.19 °N, 101.84 °W | Updated 20 seconds ago

Light Rain
Light Rain Mist
64.9 °F
Feels Like 64.9 °F
N
0.9
Wind Variable Wind from ESE
Gusts 16.1 mph

Today
High -- | Low -- °F
--% Chance of Precip.
Yesterday
High -- | Low -- °F
Precip. -- in
Pressure 30.14 in
Visibility 4.0 miles
Clouds Few 1500 ft
Scattered Clouds 6500 ft
Overcast 9500 ft
Dew Point 62 °F
Humidity 89%
Rainfall 0.02 in
Snow Depth Not available.
7:18 AM 8:17 PM
Waning Crescent, 6% visible
METAR KAMA 292153Z 16008KT 4SM -RA BR FEW015 SCT065 OVC095 18/17 A3025 RMK AO2 WSHFT 2121 SLP204 P0003 T01830172
Pressure 30.14 in
Visibility 4.0 miles
Clouds Few 1500 ft
Scattered Clouds 6500 ft
Overcast 9500 ft
Dew Point 62 °F
Humidity 89%
Rainfall 0.02 in
Snow Depth Not available.
7:18 AM 8:17 PM
Waning Crescent, 6% visible
METAR KAMA 292153Z 16008KT 4SM -RA BR FEW015 SCT065 OVC095 18/17 A3025 RMK AO2 WSHFT 2121 SLP204 P0003 T01830172

10-Day Weather Forecast

Almanac

Astronomy

Aug. 29, 2016 Rise Set
Actual Time
Civil Twilight
Nautical Twilight
Astronomical Twilight
Moon
Length of Visible Light
Length of Day
Tomorrow will be .
, % of the Moon is Illuminated

Today's Extremes

State Highs State Lows

Community

WunderPhotos

Upload Photos

1,935,690 photos uploaded!

WunderBlog® & News

Nearby

Air Quality

  Air Quality AQ Index Pollutant
Not available.

Snow Depth

Station Depth Elevation

Earthquake Activity

City Distance Mag. Time & Date
Minimum magnitude displayed is 2.5.

Coastal Water Temperatures

Place Temperature

Stations

Nearby Weather Stations

Station Location Temp. Windchill Dew Point Humidity Wind Precip. Elev Updated Type
                   

Watches & Warnings

Areal Flood Advisory
Issued: 2:49 PM CDT Aug. 29, 2016 – National Weather Service

The National Weather Service in Amarillo has issued a

* Flood Advisory for...
southern Moore County in the Panhandle of Texas...
western Carson County in the Panhandle of Texas...
Potter County in the Panhandle of Texas...
southwestern Hutchinson County in the Panhandle of Texas...

* until 545 PM CDT

* at 248 PM CDT... Doppler radar indicated heavy rain that will cause
minor flooding in the advisory area. One to two inches of rain
have already fallen. The public has reported that minor flooding
was occurring on the Fritch Highway.

* Some locations that will experience flooding include...
Amarillo... Dumas... Borger... Panhandle... Fritch... Stinnett...
Sanford... Masterson... Lake Meredith... valley de Oro... Bushland...
four way and pantex.

Precautionary/preparedness actions...

Turn around... don't drown when encountering flooded roads. Most flood
deaths occur in vehicles.

Please report flooding to your local law enforcement agency when you
can do so safely.


Lat... Lon 3519 10217 3587 10216 3585 10132 3518 10133


Jc